Tingis — CNA4486 — position and weather

sailwx.info

Track history (hours):
 
Tides and Currents Weather Stations Pressure Air Temp Water Temp Dewpoint Dewpoint Depression Visibility Wind Speed Wind Dir Waves Ship Positions

Tingis

Last reported at 2017-Oct-19 15:48 UTC. Time now 2017-Oct-19 16:21 UTC.
Position N 35°53' W 005°50'.

Length 119 m; draft 6.2 m.

Type: Ship (hazmat cat A). MMSI: 242924000.

Date/timePositionNaut miles runAvg speedWind from/ knotsBaromVisibWave heightAir tempDewpointWater temp
2017-Oct-19 15:48N 35°53' W 005°50'13 8.5
2017-Oct-19 14:15N 35°57' W 005°35'2 9.9
2017-Oct-19 14:00N 35°58' W 005°32'5 9.9
2017-Oct-19 13:30N 35°60' W 005°26'5 9.4
2017-Oct-19 13:00N 36°01' W 005°21'510.5
2017-Oct-19 12:30N 36°04' W 005°16'  
2017-Oct-14 14:16N 36°01' W 005°03'414.0
2017-Oct-14 13:59N 36°00' W 005°08'613.7
2017-Oct-14 13:30N 35°59' W 005°16'714.5
2017-Oct-14 13:00N 35°58' W 005°25'  
2017-Oct-11 18:08N 33°44' W 007°22'0 0.0
2017-Oct-11 17:56N 33°44' W 007°22'0 0.0
2017-Oct-11 17:14N 33°44' W 007°22'11 0.5
2017-Oct-10 17:36N 33°44' W 007°36'212.6
2017-Oct-10 17:29N 33°44' W 007°37'612.4
2017-Oct-10 17:00N 33°42' W 007°44'713.0
2017-Oct-10 16:29N 33°39' W 007°51'4012.9
2017-Oct-10 13:22N 33°20' W 008°34'  
Track history (hours):
 
Tides and Currents Weather Stations Pressure Air Temp Water Temp Dewpoint Dewpoint Depression Visibility Wind Speed Wind Dir Waves Ship Positions

Tingis

Last reported at 2017-Oct-19 15:48 UTC. Time now 2017-Oct-19 16:21 UTC.
Position N 35°53' W 005°50'.

Length 119 m; draft 6.2 m.

Type: Ship (hazmat cat A). MMSI: 242924000.

Date/timePositionNaut miles runAvg speedWind from/ knotsBaromVisibWave heightAir tempDewpointWater temp
2017-Oct-19 15:48N 35°53' W 005°50'13 8.5
2017-Oct-19 14:15N 35°57' W 005°35'2 9.9
2017-Oct-19 14:00N 35°58' W 005°32'5 9.9
2017-Oct-19 13:30N 35°60' W 005°26'5 9.4
2017-Oct-19 13:00N 36°01' W 005°21'510.5
2017-Oct-19 12:30N 36°04' W 005°16'  
2017-Oct-14 14:16N 36°01' W 005°03'414.0
2017-Oct-14 13:59N 36°00' W 005°08'613.7
2017-Oct-14 13:30N 35°59' W 005°16'714.5
2017-Oct-14 13:00N 35°58' W 005°25'  
2017-Oct-11 18:08N 33°44' W 007°22'0 0.0
2017-Oct-11 17:56N 33°44' W 007°22'0 0.0
2017-Oct-11 17:14N 33°44' W 007°22'11 0.5
2017-Oct-10 17:36N 33°44' W 007°36'212.6
2017-Oct-10 17:29N 33°44' W 007°37'612.4
2017-Oct-10 17:00N 33°42' W 007°44'713.0
2017-Oct-10 16:29N 33°39' W 007°51'4012.9
2017-Oct-10 13:22N 33°20' W 008°34'  

Dump ship's entire track history